createdAt,value
2023-04-09T00:00:00.445Z,8.21
2023-04-09T00:02:28.806Z,8.20
2023-04-09T00:04:56.714Z,8.17
2023-04-09T00:07:24.679Z,8.16
2023-04-09T00:09:52.499Z,8.16
2023-04-09T00:12:20.289Z,8.15
2023-04-09T00:14:48.055Z,8.19
2023-04-09T00:17:15.818Z,8.23
2023-04-09T00:19:43.651Z,8.25
2023-04-09T00:22:12.139Z,8.16
2023-04-09T00:24:39.884Z,8.10
2023-04-09T00:27:07.661Z,8.05
2023-04-09T00:29:35.528Z,8.01
2023-04-09T00:32:03.354Z,7.99
2023-04-09T00:34:31.190Z,7.94
2023-04-09T00:36:58.986Z,7.92
2023-04-09T00:39:27.644Z,7.88
2023-04-09T00:42:02.864Z,7.87
2023-04-09T00:44:31.308Z,7.84
2023-04-09T00:47:00.783Z,7.85
2023-04-09T00:49:28.947Z,7.87
2023-04-09T00:51:56.906Z,7.86
2023-04-09T00:54:24.834Z,7.86
2023-04-09T00:56:53.158Z,7.85
2023-04-09T00:59:21.845Z,7.81
2023-04-09T01:01:49.728Z,7.80
2023-04-09T01:04:18.026Z,7.75
2023-04-09T01:06:53.864Z,7.66
2023-04-09T01:09:29.864Z,7.56
2023-04-09T01:12:14.589Z,7.47
2023-04-09T01:14:56.821Z,7.49
2023-04-09T01:17:38.441Z,7.48
2023-04-09T01:20:12.383Z,7.47
2023-04-09T01:23:15.778Z,7.53
2023-04-09T01:26:16.929Z,7.51
2023-04-09T01:28:55.910Z,7.47
2023-04-09T01:31:37.461Z,7.46
2023-04-09T01:34:08.795Z,7.41
2023-04-09T01:36:40.452Z,7.32
2023-04-09T01:39:09.107Z,7.36
2023-04-09T01:41:40.208Z,7.37
2023-04-09T01:44:10.466Z,7.34
2023-04-09T01:46:40.189Z,7.34
2023-04-09T01:49:10.977Z,7.39
2023-04-09T01:51:39.483Z,7.38
2023-04-09T01:54:07.915Z,7.41
2023-04-09T01:56:47.933Z,7.42
2023-04-09T01:59:16.427Z,7.43
2023-04-09T02:01:59.799Z,7.42
2023-04-09T02:04:40.973Z,7.46
2023-04-09T02:07:44.129Z,7.47
2023-04-09T02:10:17.298Z,7.45
2023-04-09T02:12:50.804Z,7.47
2023-04-09T02:15:21.629Z,7.55
2023-04-09T02:17:49.643Z,7.61
2023-04-09T02:20:19.612Z,7.64
2023-04-09T02:22:47.814Z,7.68
2023-04-09T02:25:15.683Z,7.73
2023-04-09T02:27:43.458Z,7.71
2023-04-09T02:30:11.773Z,7.70
2023-04-09T02:32:39.904Z,7.75
2023-04-09T02:35:08.016Z,7.85
2023-04-09T02:37:35.944Z,7.99
2023-04-09T02:40:04.533Z,8.06
2023-04-09T02:42:32.285Z,8.03
2023-04-09T02:45:00.045Z,8.03
2023-04-09T02:47:30.352Z,8.01
2023-04-09T02:49:59.196Z,7.97
2023-04-09T02:52:27.850Z,7.86
2023-04-09T02:54:55.699Z,7.83
2023-04-09T02:57:23.619Z,7.82
2023-04-09T02:59:51.357Z,7.85
2023-04-09T03:02:19.729Z,7.96
2023-04-09T03:04:47.718Z,8.09
2023-04-09T03:07:15.484Z,8.20
2023-04-09T03:09:43.287Z,8.23
2023-04-09T03:12:11.707Z,8.24
2023-04-09T03:14:39.454Z,8.25
2023-04-09T03:17:07.218Z,8.31
2023-04-09T03:19:35.122Z,8.39
2023-04-09T03:22:03.300Z,8.40
2023-04-09T03:24:33.546Z,8.36
2023-04-09T03:27:03.867Z,8.31
2023-04-09T03:29:31.993Z,8.28
2023-04-09T03:31:59.853Z,8.34
2023-04-09T03:34:27.998Z,8.32
2023-04-09T03:36:57.187Z,8.25
2023-04-09T03:39:30.929Z,8.24
2023-04-09T03:41:59.089Z,8.25
2023-04-09T03:44:29.304Z,8.19
2023-04-09T03:47:01.150Z,8.14
2023-04-09T03:49:29.222Z,8.07
2023-04-09T03:51:59.904Z,8.02
2023-04-09T03:54:33.537Z,7.90
2023-04-09T03:57:03.736Z,7.78
2023-04-09T03:59:31.583Z,7.63
2023-04-09T04:01:59.521Z,7.54
2023-04-09T04:04:28.348Z,7.49
2023-04-09T04:06:58.071Z,7.43
2023-04-09T04:09:31.688Z,7.36
2023-04-09T04:12:04.332Z,7.33
2023-04-09T04:14:54.778Z,7.30
2023-04-09T04:17:27.841Z,7.20
2023-04-09T04:19:58.404Z,7.11
2023-04-09T04:22:26.416Z,7.01
2023-04-09T04:24:56.326Z,6.96
2023-04-09T04:27:24.638Z,6.90
2023-04-09T04:29:52.429Z,6.79
2023-04-09T04:32:34.945Z,6.65
2023-04-09T04:35:05.320Z,6.53
2023-04-09T04:37:33.408Z,6.42
2023-04-09T04:40:03.064Z,6.36
2023-04-09T04:42:32.031Z,6.33
2023-04-09T04:45:01.332Z,6.27
2023-04-09T04:47:49.444Z,6.17
2023-04-09T04:50:17.327Z,6.08
2023-04-09T04:52:54.216Z,6.12
2023-04-09T04:55:22.306Z,6.20
2023-04-09T04:57:52.544Z,6.19
2023-04-09T05:00:22.003Z,6.23
2023-04-09T05:02:50.103Z,6.13
2023-04-09T05:05:23.954Z,6.02
2023-04-09T05:07:54.138Z,5.97
2023-04-09T05:10:22.062Z,5.91
2023-04-09T05:12:50.050Z,5.86
2023-04-09T05:15:27.095Z,5.89
2023-04-09T05:17:55.593Z,6.00
2023-04-09T05:20:24.158Z,6.09
2023-04-09T05:23:10.565Z,6.03
2023-04-09T05:25:41.709Z,5.93
2023-04-09T05:28:16.739Z,5.89
2023-04-09T05:30:48.339Z,5.95
2023-04-09T05:33:16.501Z,6.04
2023-04-09T05:35:44.435Z,6.16
2023-04-09T05:38:13.821Z,6.24
2023-04-09T05:40:44.403Z,6.38
2023-04-09T05:43:13.010Z,6.42
2023-04-09T05:45:43.699Z,6.36
2023-04-09T05:48:11.659Z,6.44
2023-04-09T05:50:51.534Z,6.49
2023-04-09T05:53:23.003Z,6.52
2023-04-09T05:55:51.208Z,6.65
2023-04-09T05:58:20.003Z,6.78
2023-04-09T06:00:48.071Z,6.78
2023-04-09T06:03:16.089Z,6.78
2023-04-09T06:05:46.044Z,6.84
2023-04-09T06:08:14.251Z,6.83
2023-04-09T06:10:42.352Z,6.75
2023-04-09T06:13:10.615Z,6.74
2023-04-09T06:15:39.411Z,6.73
2023-04-09T06:18:07.465Z,6.76
2023-04-09T06:20:35.340Z,6.77
2023-04-09T06:23:03.299Z,6.77
2023-04-09T06:25:31.282Z,6.82
2023-04-09T06:27:59.217Z,6.94
2023-04-09T06:30:27.110Z,7.10
2023-04-09T06:32:55.606Z,7.22
2023-04-09T06:35:23.630Z,7.29
2023-04-09T06:37:51.693Z,7.33
2023-04-09T06:40:23.026Z,7.41
2023-04-09T06:42:51.623Z,7.56
2023-04-09T06:45:24.411Z,7.66
2023-04-09T06:47:52.532Z,7.77
2023-04-09T06:50:20.880Z,7.91
2023-04-09T06:52:48.676Z,8.00
2023-04-09T06:55:16.543Z,8.07
2023-04-09T06:57:44.318Z,8.14
2023-04-09T07:00:12.963Z,8.28
2023-04-09T07:02:41.187Z,8.38
2023-04-09T07:05:09.784Z,8.45
2023-04-09T07:07:37.693Z,8.58
2023-04-09T07:10:06.624Z,8.60
2023-04-09T07:12:35.571Z,8.59
2023-04-09T07:15:08.192Z,8.62
2023-04-09T07:17:36.099Z,8.70
2023-04-09T07:20:04.875Z,8.84
2023-04-09T07:22:32.791Z,8.85
2023-04-09T07:25:01.119Z,8.89
2023-04-09T07:27:29.293Z,9.01
2023-04-09T07:29:59.100Z,9.18
2023-04-09T07:32:28.285Z,9.22
2023-04-09T07:34:57.532Z,9.19
2023-04-09T07:37:27.063Z,9.24
2023-04-09T07:39:54.976Z,9.36
2023-04-09T07:42:22.933Z,9.51
2023-04-09T07:44:50.694Z,9.62
2023-04-09T07:47:18.580Z,9.82
2023-04-09T07:49:47.059Z,9.96
2023-04-09T07:52:15.487Z,10.05
2023-04-09T07:54:43.240Z,10.09
2023-04-09T07:57:11.254Z,10.11
2023-04-09T07:59:39.254Z,10.20
2023-04-09T08:02:08.018Z,10.40
2023-04-09T08:04:36.313Z,10.41
2023-04-09T08:07:04.345Z,10.50
2023-04-09T08:09:32.413Z,10.54
2023-04-09T08:12:01.124Z,10.60
2023-04-09T08:14:29.195Z,10.73
2023-04-09T08:16:57.033Z,10.85
2023-04-09T08:19:24.900Z,11.02
2023-04-09T08:21:52.908Z,11.21
2023-04-09T08:24:21.423Z,11.29
2023-04-09T08:26:49.243Z,11.41
2023-04-09T08:29:17.180Z,11.43
2023-04-09T08:31:45.038Z,11.56
2023-04-09T08:34:15.185Z,11.71
2023-04-09T08:36:46.468Z,11.82
2023-04-09T08:39:16.131Z,11.93
2023-04-09T08:41:44.588Z,12.09
2023-04-09T08:44:12.366Z,12.26
2023-04-09T08:46:40.277Z,12.45
2023-04-09T08:49:09.799Z,12.66
2023-04-09T08:51:37.729Z,12.82
2023-04-09T08:54:05.693Z,12.81
2023-04-09T08:56:33.506Z,12.81
2023-04-09T08:59:01.370Z,12.84
2023-04-09T09:01:31.509Z,12.95
2023-04-09T09:04:07.297Z,13.01
2023-04-09T09:06:41.352Z,13.10
2023-04-09T09:09:17.436Z,13.23
2023-04-09T09:11:52.556Z,13.33
2023-04-09T09:14:20.557Z,13.34
2023-04-09T09:17:05.027Z,13.38
2023-04-09T09:19:33.820Z,13.49
2023-04-09T09:22:08.065Z,13.64
2023-04-09T09:24:50.418Z,13.75
2023-04-09T09:27:43.111Z,13.70
2023-04-09T09:30:25.988Z,13.66
2023-04-09T09:33:04.717Z,13.73
2023-04-09T09:35:54.661Z,13.74
2023-04-09T09:38:22.561Z,13.77
2023-04-09T09:40:50.544Z,13.76
2023-04-09T09:43:18.346Z,13.73
2023-04-09T09:45:47.798Z,13.79
2023-04-09T09:48:16.361Z,13.84
2023-04-09T09:50:47.682Z,13.86
2023-04-09T09:53:22.740Z,13.93
2023-04-09T09:55:56.271Z,13.98
2023-04-09T09:58:34.419Z,14.03
2023-04-09T10:01:04.289Z,14.02
2023-04-09T10:03:35.613Z,14.09
2023-04-09T10:06:04.397Z,14.17
2023-04-09T10:08:34.903Z,14.28
2023-04-09T10:11:03.649Z,14.36
2023-04-09T10:13:40.255Z,14.36
2023-04-09T10:16:09.498Z,14.42
2023-04-09T10:18:37.598Z,14.40
2023-04-09T10:21:50.408Z,14.50
2023-04-09T10:24:18.352Z,14.56
2023-04-09T10:26:46.888Z,14.63
2023-04-09T10:29:16.616Z,14.71
2023-04-09T10:32:07.250Z,14.76
2023-04-09T10:34:41.125Z,14.92
2023-04-09T10:37:15.038Z,14.97
2023-04-09T10:39:47.701Z,15.02
2023-04-09T10:42:22.152Z,15.08
2023-04-09T10:45:08.725Z,15.15
2023-04-09T10:47:39.792Z,15.15
2023-04-09T10:50:26.639Z,15.07
2023-04-09T10:52:58.235Z,15.10
2023-04-09T10:55:53.049Z,15.10
2023-04-09T10:58:21.072Z,15.08
2023-04-09T11:00:52.202Z,15.08
2023-04-09T11:03:30.446Z,15.02
2023-04-09T11:06:07.098Z,14.98
2023-04-09T11:08:36.161Z,15.04
2023-04-09T11:11:04.719Z,15.06
2023-04-09T11:13:34.273Z,15.10
2023-04-09T11:16:06.754Z,15.20
2023-04-09T11:18:36.973Z,15.32
2023-04-09T11:21:05.215Z,15.38
2023-04-09T11:23:33.909Z,15.48
2023-04-09T11:26:05.173Z,15.44
2023-04-09T11:28:34.804Z,15.40
2023-04-09T11:31:05.905Z,15.48
2023-04-09T11:33:36.871Z,15.65
2023-04-09T11:36:06.912Z,15.85
2023-04-09T11:38:37.908Z,15.97
2023-04-09T11:41:05.829Z,15.99
2023-04-09T11:43:36.571Z,15.99
2023-04-09T11:46:08.029Z,16.01
2023-04-09T11:48:36.358Z,16.01
2023-04-09T11:51:04.775Z,16.08
2023-04-09T11:53:32.623Z,16.09
2023-04-09T11:56:00.667Z,16.11
2023-04-09T11:58:28.510Z,16.05
2023-04-09T12:00:59.070Z,16.15
2023-04-09T12:03:36.894Z,16.28
2023-04-09T12:06:07.137Z,16.39
2023-04-09T12:08:37.282Z,16.47
2023-04-09T12:11:13.366Z,16.67
2023-04-09T12:13:43.472Z,16.72
2023-04-09T12:16:13.692Z,16.73
2023-04-09T12:18:41.651Z,16.82
2023-04-09T12:21:09.503Z,16.90
2023-04-09T12:23:37.433Z,16.88
2023-04-09T12:26:05.393Z,16.93
2023-04-09T12:28:33.277Z,17.01
2023-04-09T12:31:01.230Z,16.92
2023-04-09T12:33:29.058Z,16.91
2023-04-09T12:35:58.409Z,16.99
2023-04-09T12:38:26.873Z,17.04
2023-04-09T12:40:54.918Z,17.01
2023-04-09T12:43:22.831Z,17.13
2023-04-09T12:45:51.556Z,17.25
2023-04-09T12:48:19.346Z,17.33
2023-04-09T12:50:47.138Z,17.36
2023-04-09T12:53:14.888Z,17.36
2023-04-09T12:55:43.176Z,17.39
2023-04-09T12:58:11.306Z,17.45
2023-04-09T13:00:39.192Z,17.51
2023-04-09T13:03:07.170Z,17.59
2023-04-09T13:05:35.630Z,17.63
2023-04-09T13:08:04.081Z,17.69
2023-04-09T13:10:31.854Z,17.76
2023-04-09T13:13:00.281Z,17.84
2023-04-09T13:15:28.559Z,17.90
2023-04-09T13:17:56.719Z,18.06
2023-04-09T13:20:24.834Z,18.13
2023-04-09T13:22:52.744Z,18.27
2023-04-09T13:25:20.658Z,18.19
2023-04-09T13:27:48.717Z,18.07
2023-04-09T13:30:16.496Z,18.11
2023-04-09T13:32:44.542Z,18.07
2023-04-09T13:35:12.418Z,18.03
2023-04-09T13:37:41.603Z,18.12
2023-04-09T13:40:09.861Z,18.19
2023-04-09T13:42:37.653Z,18.21
2023-04-09T13:45:06.870Z,18.25
2023-04-09T13:47:34.917Z,18.28
2023-04-09T13:50:03.093Z,18.24
2023-04-09T13:52:32.158Z,18.19
2023-04-09T13:55:00.073Z,18.12
2023-04-09T13:57:27.873Z,18.11
2023-04-09T13:59:55.686Z,18.15
2023-04-09T14:02:23.886Z,18.29
2023-04-09T14:04:52.568Z,18.48
2023-04-09T14:07:20.620Z,18.65
2023-04-09T14:09:48.434Z,18.81
2023-04-09T14:12:16.374Z,19.02
2023-04-09T14:14:44.134Z,19.09
2023-04-09T14:17:11.913Z,19.06
2023-04-09T14:19:39.721Z,19.00
2023-04-09T14:22:08.816Z,18.97
2023-04-09T14:24:40.049Z,18.86
2023-04-09T14:27:08.978Z,18.81
2023-04-09T14:29:36.761Z,18.71
2023-04-09T14:32:04.656Z,18.67
2023-04-09T14:34:32.442Z,18.67
2023-04-09T14:37:00.425Z,18.70
2023-04-09T14:39:29.075Z,18.75
2023-04-09T14:41:57.369Z,18.75
2023-04-09T14:44:27.965Z,18.78
2023-04-09T14:46:56.875Z,18.78
2023-04-09T14:49:24.706Z,18.93
2023-04-09T14:51:52.875Z,19.06
2023-04-09T14:54:20.763Z,19.10
2023-04-09T14:56:48.575Z,19.09
2023-04-09T14:59:16.314Z,19.12
2023-04-09T15:01:44.250Z,19.07
2023-04-09T15:04:12.226Z,19.01
2023-04-09T15:06:40.858Z,19.02
2023-04-09T15:09:09.082Z,18.94
2023-04-09T15:11:36.880Z,18.88
2023-04-09T15:14:04.637Z,18.85
2023-04-09T15:16:37.238Z,18.90
2023-04-09T15:19:05.397Z,18.83
2023-04-09T15:21:33.310Z,18.78
2023-04-09T15:24:01.180Z,18.73
2023-04-09T15:26:29.030Z,18.62
2023-04-09T15:29:08.183Z,18.46
2023-04-09T15:31:37.621Z,18.39
2023-04-09T15:34:07.089Z,18.36
2023-04-09T15:36:35.086Z,18.37
2023-04-09T15:39:04.509Z,18.42
2023-04-09T15:41:33.758Z,18.43
2023-04-09T15:44:01.644Z,18.40
2023-04-09T15:46:29.446Z,18.36
2023-04-09T15:48:57.220Z,18.36
2023-04-09T15:51:25.251Z,18.36
2023-04-09T15:53:53.443Z,18.30
2023-04-09T15:56:21.656Z,18.19
2023-04-09T15:58:49.597Z,18.02
2023-04-09T16:01:17.477Z,17.92
2023-04-09T16:03:50.588Z,17.90
2023-04-09T16:06:19.044Z,17.88
2023-04-09T16:08:46.929Z,17.80
2023-04-09T16:11:15.516Z,17.74
2023-04-09T16:13:43.268Z,17.69
2023-04-09T16:16:11.007Z,17.62
2023-04-09T16:18:38.914Z,17.57
2023-04-09T16:21:06.740Z,17.48
2023-04-09T16:23:34.618Z,17.38
2023-04-09T16:26:02.455Z,17.35
2023-04-09T16:28:30.353Z,17.33
2023-04-09T16:30:59.826Z,17.27
2023-04-09T16:33:27.953Z,17.18
2023-04-09T16:35:55.904Z,17.05
2023-04-09T16:38:24.715Z,16.94
2023-04-09T16:40:52.720Z,16.80
2023-04-09T16:43:20.560Z,16.70
2023-04-09T16:45:48.480Z,16.58
2023-04-09T16:48:16.363Z,16.50
2023-04-09T16:50:44.306Z,16.43
2023-04-09T16:53:12.097Z,16.37
2023-04-09T16:55:40.025Z,16.24
2023-04-09T16:58:07.910Z,16.14
2023-04-09T17:00:35.840Z,16.05
2023-04-09T17:03:04.454Z,15.96
2023-04-09T17:05:32.703Z,15.85
2023-04-09T17:08:01.252Z,15.78
2023-04-09T17:10:29.262Z,15.65
2023-04-09T17:12:57.668Z,15.59
2023-04-09T17:15:25.939Z,15.52
2023-04-09T17:17:54.661Z,15.45
2023-04-09T17:20:25.198Z,15.38
2023-04-09T17:22:54.678Z,15.34
2023-04-09T17:25:25.323Z,15.28
2023-04-09T17:27:54.852Z,15.20
2023-04-09T17:30:23.188Z,15.13
2023-04-09T17:32:51.262Z,15.06
2023-04-09T17:35:19.222Z,14.97
2023-04-09T17:37:47.075Z,14.89
2023-04-09T17:40:16.882Z,14.74
2023-04-09T17:42:45.151Z,14.60
2023-04-09T17:45:13.217Z,14.54
2023-04-09T17:47:41.235Z,14.46
2023-04-09T17:50:09.684Z,14.36
2023-04-09T17:52:38.744Z,14.28
2023-04-09T17:55:08.631Z,14.16
2023-04-09T17:57:36.653Z,14.07
2023-04-09T18:00:05.559Z,13.97
2023-04-09T18:02:34.612Z,13.84
2023-04-09T18:05:07.280Z,13.75
2023-04-09T18:07:35.462Z,13.67
2023-04-09T18:10:03.844Z,13.62
2023-04-09T18:12:32.723Z,13.55
2023-04-09T18:15:00.514Z,13.50
2023-04-09T18:17:28.448Z,13.44
2023-04-09T18:19:58.296Z,13.38
2023-04-09T18:22:27.657Z,13.30
2023-04-09T18:24:55.904Z,13.25
2023-04-09T18:27:23.742Z,13.24
2023-04-09T18:29:51.683Z,13.20
2023-04-09T18:32:19.819Z,13.14
2023-04-09T18:34:48.486Z,13.07
2023-04-09T18:37:16.417Z,13.03
2023-04-09T18:39:46.266Z,13.00
2023-04-09T18:42:14.221Z,13.00
2023-04-09T18:44:42.579Z,12.95
2023-04-09T18:47:10.996Z,12.93
2023-04-09T18:49:38.832Z,12.89
2023-04-09T18:52:07.794Z,12.82
2023-04-09T18:54:36.597Z,12.77
2023-04-09T18:57:04.672Z,12.72
2023-04-09T18:59:34.795Z,12.67
2023-04-09T19:02:06.323Z,12.59
2023-04-09T19:04:36.496Z,12.56
2023-04-09T19:07:04.613Z,12.53
2023-04-09T19:09:32.844Z,12.50
2023-04-09T19:12:01.874Z,12.47
2023-04-09T19:14:30.023Z,12.47
2023-04-09T19:16:58.732Z,12.46
2023-04-09T19:19:27.385Z,12.42
2023-04-09T19:21:55.196Z,12.41
2023-04-09T19:24:23.635Z,12.39
2023-04-09T19:26:53.282Z,12.36
2023-04-09T19:29:21.204Z,12.34
2023-04-09T19:31:49.047Z,12.34
2023-04-09T19:34:17.034Z,12.35
2023-04-09T19:36:45.697Z,12.35
2023-04-09T19:39:14.038Z,12.30
2023-04-09T19:41:42.010Z,12.29
2023-04-09T19:44:10.609Z,12.29
2023-04-09T19:46:39.383Z,12.33
2023-04-09T19:49:08.276Z,12.38
2023-04-09T19:51:36.764Z,12.35
2023-04-09T19:54:05.335Z,12.33
2023-04-09T19:56:34.356Z,12.35
2023-04-09T19:59:02.386Z,12.34
2023-04-09T20:01:30.425Z,12.40
2023-04-09T20:03:58.472Z,12.36
2023-04-09T20:06:27.174Z,12.30
2023-04-09T20:08:55.911Z,12.27
2023-04-09T20:11:24.025Z,12.28
2023-04-09T20:13:52.199Z,12.25
2023-04-09T20:16:20.208Z,12.19
2023-04-09T20:18:48.221Z,12.15
2023-04-09T20:21:16.143Z,12.18
2023-04-09T20:23:45.548Z,12.12
2023-04-09T20:26:13.867Z,12.08
2023-04-09T20:28:42.195Z,12.03
2023-04-09T20:31:10.253Z,12.00
2023-04-09T20:33:38.078Z,12.02
2023-04-09T20:36:18.654Z,11.99
2023-04-09T20:38:48.406Z,11.99
2023-04-09T20:41:16.483Z,11.96
2023-04-09T20:43:44.317Z,11.92
2023-04-09T20:46:12.438Z,11.88
2023-04-09T20:48:41.770Z,11.90
2023-04-09T20:51:11.959Z,11.87
2023-04-09T20:53:39.804Z,11.84
2023-04-09T20:56:09.127Z,11.85
2023-04-09T20:58:37.267Z,11.85
2023-04-09T21:01:09.924Z,11.83
2023-04-09T21:03:40.117Z,11.83
2023-04-09T21:06:08.899Z,11.83
2023-04-09T21:08:38.435Z,11.81
2023-04-09T21:11:06.712Z,11.81
2023-04-09T21:13:50.416Z,11.82
2023-04-09T21:16:22.925Z,11.79
2023-04-09T21:18:51.505Z,11.72
2023-04-09T21:21:20.774Z,11.66
2023-04-09T21:23:48.623Z,11.62
2023-04-09T21:26:16.558Z,11.61
2023-04-09T21:28:45.919Z,11.64
2023-04-09T21:31:15.868Z,11.65
2023-04-09T21:33:43.852Z,11.65
2023-04-09T21:36:11.905Z,11.66
2023-04-09T21:38:39.802Z,11.63
2023-04-09T21:41:07.779Z,11.63
2023-04-09T21:43:36.222Z,11.64
2023-04-09T21:46:05.586Z,11.61
2023-04-09T21:48:33.653Z,11.59
2023-04-09T21:51:01.432Z,11.55
2023-04-09T21:53:31.241Z,11.52
2023-04-09T21:55:59.081Z,11.50
2023-04-09T21:58:27.081Z,11.50
2023-04-09T22:00:54.971Z,11.52
2023-04-09T22:03:24.680Z,11.50
2023-04-09T22:05:52.831Z,11.49
2023-04-09T22:08:20.663Z,11.50
2023-04-09T22:10:48.503Z,11.53
2023-04-09T22:13:16.414Z,11.52
2023-04-09T22:15:44.368Z,11.50
2023-04-09T22:18:12.255Z,11.49
2023-04-09T22:20:40.046Z,11.48
2023-04-09T22:23:09.654Z,11.48
2023-04-09T22:25:37.582Z,11.48
2023-04-09T22:28:05.834Z,11.48
2023-04-09T22:30:33.681Z,11.51
2023-04-09T22:33:02.336Z,11.51
2023-04-09T22:35:31.360Z,11.50
2023-04-09T22:37:59.638Z,11.50
2023-04-09T22:40:27.485Z,11.48
2023-04-09T22:42:55.280Z,11.47
2023-04-09T22:45:23.030Z,11.44
2023-04-09T22:47:53.033Z,11.43
2023-04-09T22:50:21.100Z,11.42
2023-04-09T22:52:51.531Z,11.44
2023-04-09T22:55:19.297Z,11.43
2023-04-09T22:57:47.108Z,11.40
2023-04-09T23:00:15.881Z,11.40
2023-04-09T23:02:43.873Z,11.38
2023-04-09T23:05:11.877Z,11.40
2023-04-09T23:07:39.760Z,11.43
2023-04-09T23:10:08.255Z,11.46
2023-04-09T23:12:36.124Z,11.47
2023-04-09T23:15:04.317Z,11.41
2023-04-09T23:17:32.225Z,11.39
2023-04-09T23:20:00.691Z,11.39
2023-04-09T23:22:28.591Z,11.39
2023-04-09T23:24:56.653Z,11.38
2023-04-09T23:27:28.405Z,11.39
2023-04-09T23:29:57.075Z,11.40
2023-04-09T23:32:25.206Z,11.37
2023-04-09T23:34:52.976Z,11.34
2023-04-09T23:37:20.843Z,11.32
2023-04-09T23:39:48.720Z,11.31
2023-04-09T23:42:16.613Z,11.32
2023-04-09T23:44:44.439Z,11.33
2023-04-09T23:47:13.791Z,11.35
2023-04-09T23:49:43.434Z,11.35
2023-04-09T23:52:11.204Z,11.36
2023-04-09T23:54:39.042Z,11.36
2023-04-09T23:57:07.129Z,11.35
2023-04-09T23:59:35.943Z,11.34
